WST708 MYGF-MYNN
Flight info
| Callsign | WST708 |
|---|---|
| Flight time | 0h 30m |
| Altitude | 15000 |
| Route | ZFP BR63V HANKX/N0299F140 BR63V ZQA |
| Aircraft | E145/M-SDFGIRW/S |
Departure
| Time | 2026-04-23 21:58 |
|---|---|
| Airport | Grand Bahama International Airport (MYGF) |
Arrival
| Time | 2026-04-23 22:28 |
|---|---|
| Airport | Lynden Pindling International Airport (MYNN) |
| Time | Latitude | Longitude | Altitude | Speed | Heading |
|---|---|---|---|---|---|
| 2026-04-23 21:44 | 26.54866 | -78.69732 | 12 ft | 0 kts | 229° |
| 2026-04-23 21:53 | 26.54864 | -78.69733 | 12 ft | 0 kts | 229° |
| 2026-04-23 21:53 | 26.54864 | -78.69736 | 12 ft | 0 kts | 251° |
| 2026-04-23 21:53 | 26.54876 | -78.69753 | 12 ft | 5 kts | 317° |
| 2026-04-23 21:53 | 26.54896 | -78.69787 | 12 ft | 6 kts | 291° |
| 2026-04-23 21:54 | 26.54907 | -78.69841 | 12 ft | 11 kts | 279° |
| 2026-04-23 21:54 | 26.54913 | -78.69949 | 12 ft | 19 kts | 271° |
| 2026-04-23 21:54 | 26.54918 | -78.70094 | 12 ft | 23 kts | 272° |
| 2026-04-23 21:54 | 26.54936 | -78.70254 | 12 ft | 24 kts | 286° |
| 2026-04-23 21:55 | 26.54970 | -78.70476 | 12 ft | 26 kts | 268° |
| 2026-04-23 21:55 | 26.54972 | -78.70601 | 12 ft | 27 kts | 270° |
| 2026-04-23 21:55 | 26.54977 | -78.70802 | 12 ft | 28 kts | 274° |
| 2026-04-23 21:55 | 26.54993 | -78.70990 | 12 ft | 14 kts | 308° |
| 2026-04-23 21:56 | 26.55045 | -78.71005 | 12 ft | 0 kts | 3° |
| 2026-04-23 21:56 | 26.55059 | -78.71004 | 12 ft | 3 kts | 3° |
| 2026-04-23 21:56 | 26.55092 | -78.71002 | 12 ft | 10 kts | 3° |
| 2026-04-23 21:56 | 26.55166 | -78.70958 | 12 ft | 15 kts | 55° |
| 2026-04-23 21:57 | 26.55218 | -78.70859 | 12 ft | 15 kts | 60° |
| 2026-04-23 21:57 | 26.55223 | -78.70848 | 12 ft | 1 kts | 60° |
| 2026-04-23 21:57 | 26.55275 | -78.70746 | 12 ft | 43 kts | 62° |
| 2026-04-23 21:57 | 26.55508 | -78.70268 | 12 ft | 109 kts | 59° |
| 2026-04-23 21:58 | 26.55915 | -78.69461 | 98 ft | 146 kts | 64° |
| 2026-04-23 21:58 | 26.56366 | -78.68524 | 597 ft | 153 kts | 70° |
| 2026-04-23 21:58 | 26.56663 | -78.67536 | 1346 ft | 146 kts | 87° |
| 2026-04-23 21:58 | 26.56475 | -78.66605 | 2110 ft | 135 kts | 111° |
| 2026-04-23 21:59 | 26.56089 | -78.65808 | 2679 ft | 135 kts | 121° |
| 2026-04-23 21:59 | 26.55531 | -78.65032 | 3050 ft | 152 kts | 129° |
| 2026-04-23 21:59 | 26.54815 | -78.64222 | 3485 ft | 169 kts | 133° |
| 2026-04-23 22:00 | 26.53107 | -78.62542 | 4312 ft | 204 kts | 137° |
| 2026-04-23 22:00 | 26.52086 | -78.61585 | 4730 ft | 222 kts | 137° |
| 2026-04-23 22:00 | 26.50976 | -78.60555 | 5143 ft | 240 kts | 138° |
| 2026-04-23 22:00 | 26.49789 | -78.59458 | 5556 ft | 256 kts | 138° |
| 2026-04-23 22:01 | 26.48520 | -78.58285 | 6005 ft | 271 kts | 138° |
| 2026-04-23 22:01 | 26.47120 | -78.56993 | 6548 ft | 282 kts | 138° |
| 2026-04-23 22:01 | 26.45715 | -78.55696 | 7231 ft | 286 kts | 138° |
| 2026-04-23 22:01 | 26.44445 | -78.54187 | 7987 ft | 285 kts | 126° |
| 2026-04-23 22:02 | 26.43288 | -78.52544 | 8797 ft | 285 kts | 127° |
| 2026-04-23 22:02 | 26.42103 | -78.50877 | 9580 ft | 284 kts | 127° |
| 2026-04-23 22:02 | 26.40936 | -78.49237 | 10365 ft | 283 kts | 128° |
| 2026-04-23 22:02 | 26.39797 | -78.47636 | 11148 ft | 281 kts | 128° |
| 2026-04-23 22:03 | 26.38719 | -78.46122 | 11862 ft | 280 kts | 128° |
| 2026-04-23 22:03 | 26.37635 | -78.44599 | 12403 ft | 285 kts | 128° |
| 2026-04-23 22:03 | 26.36541 | -78.43064 | 12943 ft | 289 kts | 128° |
| 2026-04-23 22:03 | 26.35430 | -78.41505 | 13484 ft | 293 kts | 128° |
| 2026-04-23 22:04 | 26.34293 | -78.39910 | 14030 ft | 297 kts | 129° |
| 2026-04-23 22:04 | 26.33157 | -78.38316 | 14568 ft | 298 kts | 129° |
| 2026-04-23 22:04 | 26.32026 | -78.36731 | 14943 ft | 301 kts | 129° |
| 2026-04-23 22:04 | 26.30787 | -78.34995 | 14986 ft | 316 kts | 129° |
| 2026-04-23 22:05 | 26.29405 | -78.33060 | 14991 ft | 332 kts | 129° |
| 2026-04-23 22:05 | 26.27989 | -78.31076 | 14990 ft | 346 kts | 129° |
| 2026-04-23 22:05 | 26.26470 | -78.28951 | 14987 ft | 359 kts | 129° |
| 2026-04-23 22:05 | 26.24921 | -78.26784 | 14986 ft | 370 kts | 129° |
| 2026-04-23 22:06 | 26.23357 | -78.24601 | 14986 ft | 379 kts | 129° |
| 2026-04-23 22:06 | 26.21711 | -78.22302 | 14985 ft | 388 kts | 129° |
| 2026-04-23 22:06 | 26.20039 | -78.19967 | 14984 ft | 396 kts | 129° |
| 2026-04-23 22:06 | 26.18342 | -78.17597 | 14980 ft | 402 kts | 129° |
| 2026-04-23 22:07 | 26.16637 | -78.15218 | 14983 ft | 408 kts | 129° |
| 2026-04-23 22:07 | 26.14903 | -78.12800 | 14985 ft | 412 kts | 129° |
| 2026-04-23 22:07 | 26.13156 | -78.10365 | 14985 ft | 417 kts | 129° |
| 2026-04-23 22:07 | 26.11375 | -78.07883 | 14983 ft | 420 kts | 129° |
| 2026-04-23 22:08 | 26.09573 | -78.05373 | 14981 ft | 420 kts | 129° |
| 2026-04-23 22:08 | 26.07784 | -78.02884 | 14977 ft | 417 kts | 129° |
| 2026-04-23 22:08 | 26.06027 | -78.00440 | 14977 ft | 414 kts | 129° |
| 2026-04-23 22:08 | 26.04234 | -77.97948 | 14981 ft | 412 kts | 129° |
| 2026-04-23 22:09 | 26.02485 | -77.95518 | 14985 ft | 410 kts | 129° |
| 2026-04-23 22:09 | 26.00732 | -77.93082 | 14991 ft | 408 kts | 129° |
| 2026-04-23 22:09 | 25.98985 | -77.90659 | 14995 ft | 407 kts | 129° |
| 2026-04-23 22:09 | 25.97240 | -77.88237 | 14996 ft | 406 kts | 129° |
| 2026-04-23 22:10 | 25.95525 | -77.85860 | 14996 ft | 405 kts | 129° |
| 2026-04-23 22:10 | 25.93788 | -77.83453 | 14994 ft | 404 kts | 129° |
| 2026-04-23 22:10 | 25.91554 | -77.80359 | 14994 ft | 403 kts | 129° |
| 2026-04-23 22:10 | 25.90489 | -77.78884 | 14997 ft | 403 kts | 129° |
| 2026-04-23 22:11 | 25.88886 | -77.76666 | 14689 ft | 407 kts | 129° |
| 2026-04-23 22:11 | 25.87239 | -77.74390 | 14233 ft | 398 kts | 129° |
| 2026-04-23 22:11 | 25.85665 | -77.72213 | 13786 ft | 391 kts | 129° |
| 2026-04-23 22:11 | 25.84115 | -77.70071 | 13329 ft | 377 kts | 129° |
| 2026-04-23 22:12 | 25.82648 | -77.68045 | 12884 ft | 364 kts | 129° |
| 2026-04-23 22:12 | 25.81156 | -77.65986 | 12421 ft | 353 kts | 129° |
| 2026-04-23 22:12 | 25.79771 | -77.64075 | 11972 ft | 344 kts | 129° |
| 2026-04-23 22:12 | 25.78477 | -77.62289 | 11559 ft | 335 kts | 129° |
| 2026-04-23 22:13 | 25.77204 | -77.60535 | 11187 ft | 326 kts | 129° |
| 2026-04-23 22:13 | 25.75975 | -77.58842 | 10854 ft | 317 kts | 129° |
| 2026-04-23 22:13 | 25.74794 | -77.57214 | 10556 ft | 308 kts | 129° |
| 2026-04-23 22:13 | 25.73643 | -77.55628 | 10285 ft | 299 kts | 129° |
| 2026-04-23 22:14 | 25.72518 | -77.54079 | 10039 ft | 290 kts | 129° |
| 2026-04-23 22:14 | 25.71404 | -77.52547 | 9816 ft | 281 kts | 129° |
| 2026-04-23 22:14 | 25.70336 | -77.51077 | 9602 ft | 278 kts | 129° |
| 2026-04-23 22:14 | 25.69134 | -77.49817 | 9390 ft | 276 kts | 149° |
| 2026-04-23 22:15 | 25.67573 | -77.49224 | 9197 ft | 274 kts | 174° |
| 2026-04-23 22:15 | 25.65944 | -77.49397 | 9007 ft | 271 kts | 193° |
| 2026-04-23 22:15 | 25.64408 | -77.49794 | 8809 ft | 270 kts | 192° |
| 2026-04-23 22:15 | 25.62724 | -77.50220 | 8586 ft | 270 kts | 192° |
| 2026-04-23 22:16 | 25.61038 | -77.50647 | 8367 ft | 274 kts | 192° |
| 2026-04-23 22:16 | 25.59266 | -77.51097 | 8141 ft | 276 kts | 192° |
| 2026-04-23 22:16 | 25.57492 | -77.51547 | 7913 ft | 278 kts | 192° |
| 2026-04-23 22:16 | 25.55720 | -77.51995 | 7689 ft | 280 kts | 192° |
| 2026-04-23 22:17 | 25.53332 | -77.52601 | 7382 ft | 281 kts | 191° |
| 2026-04-23 22:17 | 25.52169 | -77.52896 | 7235 ft | 281 kts | 192° |
| 2026-04-23 22:17 | 25.50368 | -77.53353 | 7006 ft | 281 kts | 191° |
| 2026-04-23 22:17 | 25.48610 | -77.53799 | 6781 ft | 281 kts | 191° |
| 2026-04-23 22:18 | 25.46854 | -77.54244 | 6552 ft | 276 kts | 191° |
| 2026-04-23 22:18 | 25.45081 | -77.54693 | 6313 ft | 271 kts | 191° |
| 2026-04-23 22:18 | 25.43394 | -77.55120 | 6082 ft | 266 kts | 191° |
| 2026-04-23 22:18 | 25.41719 | -77.55544 | 5849 ft | 263 kts | 191° |
| 2026-04-23 22:19 | 25.40046 | -77.55968 | 5616 ft | 259 kts | 191° |
| 2026-04-23 22:19 | 25.38434 | -77.56375 | 5389 ft | 256 kts | 191° |
| 2026-04-23 22:19 | 25.36908 | -77.56761 | 5169 ft | 253 kts | 190° |
| 2026-04-23 22:19 | 25.35349 | -77.57155 | 4942 ft | 251 kts | 191° |
| 2026-04-23 22:20 | 25.33835 | -77.57537 | 4721 ft | 248 kts | 190° |
| 2026-04-23 22:20 | 25.32343 | -77.57915 | 4502 ft | 246 kts | 190° |
| 2026-04-23 22:20 | 25.30853 | -77.58291 | 4280 ft | 245 kts | 190° |
| 2026-04-23 22:20 | 25.29260 | -77.58693 | 4039 ft | 242 kts | 190° |
| 2026-04-23 22:21 | 25.27716 | -77.59084 | 3799 ft | 239 kts | 189° |
| 2026-04-23 22:21 | 25.26150 | -77.59479 | 3558 ft | 235 kts | 189° |
| 2026-04-23 22:21 | 25.24754 | -77.59831 | 3285 ft | 226 kts | 188° |
| 2026-04-23 22:21 | 25.23429 | -77.60166 | 3057 ft | 214 kts | 188° |
| 2026-04-23 22:22 | 25.22144 | -77.60490 | 2821 ft | 204 kts | 188° |
| 2026-04-23 22:22 | 25.20896 | -77.60804 | 2587 ft | 197 kts | 188° |
| 2026-04-23 22:22 | 25.19326 | -77.61200 | 2365 ft | 184 kts | 188° |
| 2026-04-23 22:22 | 25.18571 | -77.61348 | 2207 ft | 181 kts | 176° |
| 2026-04-23 22:23 | 25.17527 | -77.61025 | 1996 ft | 170 kts | 149° |
| 2026-04-23 22:23 | 25.16569 | -77.60529 | 1779 ft | 170 kts | 150° |
| 2026-04-23 22:23 | 25.15693 | -77.59870 | 1594 ft | 163 kts | 135° |
| 2026-04-23 22:23 | 25.14968 | -77.59187 | 1560 ft | 151 kts | 135° |
| 2026-04-23 22:24 | 25.14329 | -77.58591 | 1548 ft | 139 kts | 135° |
| 2026-04-23 22:24 | 25.13696 | -77.58012 | 1600 ft | 136 kts | 136° |
| 2026-04-23 22:24 | 25.13079 | -77.57421 | 1579 ft | 144 kts | 132° |
| 2026-04-23 22:24 | 25.12450 | -77.56795 | 1566 ft | 146 kts | 133° |
| 2026-04-23 22:25 | 25.11797 | -77.56142 | 1563 ft | 145 kts | 133° |
| 2026-04-23 22:25 | 25.11136 | -77.55472 | 1561 ft | 143 kts | 132° |
| 2026-04-23 22:25 | 25.10537 | -77.54813 | 1507 ft | 146 kts | 128° |
| 2026-04-23 22:25 | 25.09961 | -77.54122 | 1435 ft | 145 kts | 130° |
| 2026-04-23 22:26 | 25.09413 | -77.53448 | 1339 ft | 139 kts | 123° |
| 2026-04-23 22:26 | 25.08968 | -77.52711 | 1212 ft | 136 kts | 118° |
| 2026-04-23 22:26 | 25.08571 | -77.51964 | 1061 ft | 137 kts | 116° |
| 2026-04-23 22:26 | 25.08187 | -77.51193 | 929 ft | 135 kts | 120° |
| 2026-04-23 22:27 | 25.07760 | -77.50477 | 741 ft | 139 kts | 128° |
| 2026-04-23 22:27 | 25.07224 | -77.49813 | 522 ft | 142 kts | 133° |
| 2026-04-23 22:27 | 25.06462 | -77.48987 | 351 ft | 135 kts | 133° |
| 2026-04-23 22:27 | 25.06103 | -77.48592 | 296 ft | 129 kts | 134° |
| 2026-04-23 22:28 | 25.05577 | -77.48014 | 153 ft | 128 kts | 134° |
| 2026-04-23 22:28 | 25.05058 | -77.47434 | 35 ft | 122 kts | 133° |
| 2026-04-23 22:28 | 25.04619 | -77.46942 | 25 ft | 72 kts | 134° |
| 2026-04-23 22:28 | 25.04478 | -77.46783 | 23 ft | 11 kts | 121° |
| 2026-04-23 22:29 | 25.04477 | -77.46711 | 23 ft | 12 kts | 54° |
| 2026-04-23 22:29 | 25.04516 | -77.46668 | 23 ft | 5 kts | 46° |
| 2026-04-23 22:29 | 25.04546 | -77.46639 | 23 ft | 7 kts | 22° |
| 2026-04-23 22:29 | 25.04594 | -77.46655 | 23 ft | 9 kts | 318° |
| 2026-04-23 22:30 | 25.04638 | -77.46705 | 23 ft | 11 kts | 315° |
| 2026-04-23 22:30 | 25.04690 | -77.46739 | 23 ft | 5 kts | 2° |
| 2026-04-23 22:30 | 25.04726 | -77.46719 | 23 ft | 7 kts | 43° |
| 2026-04-23 22:30 | 25.04763 | -77.46679 | 23 ft | 9 kts | 43° |
| 2026-04-23 22:31 | 25.04799 | -77.46641 | 23 ft | 5 kts | 45° |
| 2026-04-23 22:31 | 25.04808 | -77.46608 | 23 ft | 6 kts | 107° |
| 2026-04-23 22:31 | 25.04797 | -77.46579 | 23 ft | 3 kts | 114° |
| 2026-04-23 22:31 | 25.04779 | -77.46567 | 23 ft | 4 kts | 174° |
| 2026-04-23 22:32 | 25.04773 | -77.46566 | 23 ft | 0 kts | 176° |